sensor_id;sensor_type;location;lat;lon;timestamp;temperature;humidity
13569;DHT22;6856;51.460;7.158;2023-08-12T00:02:20;26.10;58.30
13569;DHT22;6856;51.460;7.158;2023-08-12T00:04:54;26.00;58.90
13569;DHT22;6856;51.460;7.158;2023-08-12T00:07:30;26.00;58.40
13569;DHT22;6856;51.460;7.158;2023-08-12T00:10:10;26.00;58.30
13569;DHT22;6856;51.460;7.158;2023-08-12T00:12:44;26.00;58.50
13569;DHT22;6856;51.460;7.158;2023-08-12T00:15:18;26.00;58.40
13569;DHT22;6856;51.460;7.158;2023-08-12T00:17:52;26.00;58.40
13569;DHT22;6856;51.460;7.158;2023-08-12T00:20:26;26.00;58.50
13569;DHT22;6856;51.460;7.158;2023-08-12T00:23:01;26.00;58.50
13569;DHT22;6856;51.460;7.158;2023-08-12T00:25:35;26.00;58.50
13569;DHT22;6856;51.460;7.158;2023-08-12T00:28:09;26.00;58.40
13569;DHT22;6856;51.460;7.158;2023-08-12T00:30:42;26.00;58.50
13569;DHT22;6856;51.460;7.158;2023-08-12T00:33:16;26.00;58.60
13569;DHT22;6856;51.460;7.158;2023-08-12T00:35:50;26.00;58.60
13569;DHT22;6856;51.460;7.158;2023-08-12T00:38:25;26.00;58.60
13569;DHT22;6856;51.460;7.158;2023-08-12T00:40:59;26.00;58.60
13569;DHT22;6856;51.460;7.158;2023-08-12T00:43:33;25.90;58.50
13569;DHT22;6856;51.460;7.158;2023-08-12T00:46:07;26.00;58.70
13569;DHT22;6856;51.460;7.158;2023-08-12T00:48:40;26.00;58.90
13569;DHT22;6856;51.460;7.158;2023-08-12T00:51:15;25.90;58.80
13569;DHT22;6856;51.460;7.158;2023-08-12T00:53:51;25.90;58.80
13569;DHT22;6856;51.460;7.158;2023-08-12T00:56:26;25.90;58.80
13569;DHT22;6856;51.460;7.158;2023-08-12T00:59:01;25.90;58.80
13569;DHT22;6856;51.460;7.158;2023-08-12T01:01:40;25.90;59.00
13569;DHT22;6856;51.460;7.158;2023-08-12T01:04:15;25.90;59.00
13569;DHT22;6856;51.460;7.158;2023-08-12T01:06:49;25.90;58.90
13569;DHT22;6856;51.460;7.158;2023-08-12T01:09:24;25.90;58.90
13569;DHT22;6856;51.460;7.158;2023-08-12T01:12:03;25.90;59.00
13569;DHT22;6856;51.460;7.158;2023-08-12T01:14:45;25.90;59.10
13569;DHT22;6856;51.460;7.158;2023-08-12T01:17:26;25.90;59.20
13569;DHT22;6856;51.460;7.158;2023-08-12T01:20:03;25.90;59.10
13569;DHT22;6856;51.460;7.158;2023-08-12T01:22:43;25.80;59.10
13569;DHT22;6856;51.460;7.158;2023-08-12T01:25:20;25.80;59.20
13569;DHT22;6856;51.460;7.158;2023-08-12T01:27:54;25.80;59.10
13569;DHT22;6856;51.460;7.158;2023-08-12T01:30:28;25.80;59.20
13569;DHT22;6856;51.460;7.158;2023-08-12T01:33:09;25.80;59.20
13569;DHT22;6856;51.460;7.158;2023-08-12T01:35:53;25.80;59.40
13569;DHT22;6856;51.460;7.158;2023-08-12T01:38:31;25.80;59.40
13569;DHT22;6856;51.460;7.158;2023-08-12T01:41:09;25.80;59.40
13569;DHT22;6856;51.460;7.158;2023-08-12T01:43:44;25.80;59.40
13569;DHT22;6856;51.460;7.158;2023-08-12T01:46:19;25.80;59.40
13569;DHT22;6856;51.460;7.158;2023-08-12T01:48:54;25.80;59.40
13569;DHT22;6856;51.460;7.158;2023-08-12T01:51:29;25.80;59.50
13569;DHT22;6856;51.460;7.158;2023-08-12T01:54:03;25.80;60.20
13569;DHT22;6856;51.460;7.158;2023-08-12T01:56:38;25.70;60.10
13569;DHT22;6856;51.460;7.158;2023-08-12T01:59:12;25.70;59.50
13569;DHT22;6856;51.460;7.158;2023-08-12T02:01:46;25.70;59.50
13569;DHT22;6856;51.460;7.158;2023-08-12T02:04:20;25.70;59.60
13569;DHT22;6856;51.460;7.158;2023-08-12T02:06:55;25.70;59.60
13569;DHT22;6856;51.460;7.158;2023-08-12T02:09:29;25.60;59.00
13569;DHT22;6856;51.460;7.158;2023-08-12T02:12:06;25.60;59.60
13569;DHT22;6856;51.460;7.158;2023-08-12T02:14:40;25.60;59.80
13569;DHT22;6856;51.460;7.158;2023-08-12T02:17:14;25.60;59.80
13569;DHT22;6856;51.460;7.158;2023-08-12T02:19:48;25.60;59.90
13569;DHT22;6856;51.460;7.158;2023-08-12T02:22:22;25.60;60.00
13569;DHT22;6856;51.460;7.158;2023-08-12T02:24:57;25.60;60.00
13569;DHT22;6856;51.460;7.158;2023-08-12T02:27:34;25.60;60.00
13569;DHT22;6856;51.460;7.158;2023-08-12T02:30:08;25.50;60.00
13569;DHT22;6856;51.460;7.158;2023-08-12T02:32:42;25.60;60.10
13569;DHT22;6856;51.460;7.158;2023-08-12T02:35:17;25.60;60.40
13569;DHT22;6856;51.460;7.158;2023-08-12T02:37:51;25.50;60.30
13569;DHT22;6856;51.460;7.158;2023-08-12T02:40:25;25.50;60.20
13569;DHT22;6856;51.460;7.158;2023-08-12T02:43:00;25.50;60.20
13569;DHT22;6856;51.460;7.158;2023-08-12T02:45:34;25.50;60.20
13569;DHT22;6856;51.460;7.158;2023-08-12T02:48:09;25.50;60.20
13569;DHT22;6856;51.460;7.158;2023-08-12T02:50:43;25.50;60.20
13569;DHT22;6856;51.460;7.158;2023-08-12T02:53:17;25.50;60.20
13569;DHT22;6856;51.460;7.158;2023-08-12T02:55:51;25.50;60.20
13569;DHT22;6856;51.460;7.158;2023-08-12T02:58:25;25.50;60.30
13569;DHT22;6856;51.460;7.158;2023-08-12T03:00:59;25.50;60.30
13569;DHT22;6856;51.460;7.158;2023-08-12T03:03:33;25.50;60.30
13569;DHT22;6856;51.460;7.158;2023-08-12T03:06:07;25.50;60.30
13569;DHT22;6856;51.460;7.158;2023-08-12T03:08:41;25.50;60.30
13569;DHT22;6856;51.460;7.158;2023-08-12T03:11:18;25.50;60.40
13569;DHT22;6856;51.460;7.158;2023-08-12T03:13:53;25.50;60.50
13569;DHT22;6856;51.460;7.158;2023-08-12T03:16:26;25.50;60.50
13569;DHT22;6856;51.460;7.158;2023-08-12T03:19:00;25.50;60.50
13569;DHT22;6856;51.460;7.158;2023-08-12T03:21:34;25.50;60.50
13569;DHT22;6856;51.460;7.158;2023-08-12T03:24:07;25.50;60.60
13569;DHT22;6856;51.460;7.158;2023-08-12T03:26:41;25.40;60.50
13569;DHT22;6856;51.460;7.158;2023-08-12T03:29:17;25.40;60.50
13569;DHT22;6856;51.460;7.158;2023-08-12T03:31:51;25.40;60.80
13569;DHT22;6856;51.460;7.158;2023-08-12T03:34:25;25.40;60.70
13569;DHT22;6856;51.460;7.158;2023-08-12T03:37:01;25.40;60.70
13569;DHT22;6856;51.460;7.158;2023-08-12T03:39:35;25.40;60.60
13569;DHT22;6856;51.460;7.158;2023-08-12T03:42:09;25.40;60.70
13569;DHT22;6856;51.460;7.158;2023-08-12T03:44:44;25.40;60.80
13569;DHT22;6856;51.460;7.158;2023-08-12T03:47:18;25.30;60.70
13569;DHT22;6856;51.460;7.158;2023-08-12T03:49:55;25.30;60.70
13569;DHT22;6856;51.460;7.158;2023-08-12T03:52:29;25.30;61.00
13569;DHT22;6856;51.460;7.158;2023-08-12T03:55:03;25.30;61.00
13569;DHT22;6856;51.460;7.158;2023-08-12T03:57:37;25.30;61.20
13569;DHT22;6856;51.460;7.158;2023-08-12T04:00:14;25.30;61.10
13569;DHT22;6856;51.460;7.158;2023-08-12T04:02:48;25.30;61.30
13569;DHT22;6856;51.460;7.158;2023-08-12T04:05:22;25.20;61.20
13569;DHT22;6856;51.460;7.158;2023-08-12T04:07:56;25.20;61.30
13569;DHT22;6856;51.460;7.158;2023-08-12T04:10:30;25.20;61.50
13569;DHT22;6856;51.460;7.158;2023-08-12T04:13:04;25.20;61.40
13569;DHT22;6856;51.460;7.158;2023-08-12T04:15:39;25.20;61.40
13569;DHT22;6856;51.460;7.158;2023-08-12T04:18:13;25.10;61.40
13569;DHT22;6856;51.460;7.158;2023-08-12T04:20:48;25.10;61.70
13569;DHT22;6856;51.460;7.158;2023-08-12T04:23:23;25.10;61.70
13569;DHT22;6856;51.460;7.158;2023-08-12T04:25:57;25.10;62.30
13569;DHT22;6856;51.460;7.158;2023-08-12T04:28:32;25.10;61.60
13569;DHT22;6856;51.460;7.158;2023-08-12T04:31:07;25.10;61.70
13569;DHT22;6856;51.460;7.158;2023-08-12T04:33:41;25.10;61.80
13569;DHT22;6856;51.460;7.158;2023-08-12T04:36:14;25.10;61.70
13569;DHT22;6856;51.460;7.158;2023-08-12T04:38:48;25.10;61.90
13569;DHT22;6856;51.460;7.158;2023-08-12T04:41:22;25.10;61.90
13569;DHT22;6856;51.460;7.158;2023-08-12T04:43:56;25.10;61.90
13569;DHT22;6856;51.460;7.158;2023-08-12T04:46:31;25.10;62.00
13569;DHT22;6856;51.460;7.158;2023-08-12T04:49:04;25.10;62.00
13569;DHT22;6856;51.460;7.158;2023-08-12T04:51:38;25.10;62.00
13569;DHT22;6856;51.460;7.158;2023-08-12T04:54:12;25.10;61.90
13569;DHT22;6856;51.460;7.158;2023-08-12T04:56:45;25.10;62.00
13569;DHT22;6856;51.460;7.158;2023-08-12T04:59:19;25.10;62.00
13569;DHT22;6856;51.460;7.158;2023-08-12T05:01:55;25.10;62.10
13569;DHT22;6856;51.460;7.158;2023-08-12T05:04:48;25.10;62.10
13569;DHT22;6856;51.460;7.158;2023-08-12T05:07:23;25.10;62.10
13569;DHT22;6856;51.460;7.158;2023-08-12T05:09:56;25.10;62.00
13569;DHT22;6856;51.460;7.158;2023-08-12T05:12:30;25.10;62.20
13569;DHT22;6856;51.460;7.158;2023-08-12T05:15:05;25.10;62.20
13569;DHT22;6856;51.460;7.158;2023-08-12T05:17:41;25.20;62.40
13569;DHT22;6856;51.460;7.158;2023-08-12T05:20:15;25.20;62.30
13569;DHT22;6856;51.460;7.158;2023-08-12T05:22:49;25.20;62.40
13569;DHT22;6856;51.460;7.158;2023-08-12T05:25:23;25.20;62.40
13569;DHT22;6856;51.460;7.158;2023-08-12T05:27:57;25.20;62.40
13569;DHT22;6856;51.460;7.158;2023-08-12T05:30:30;25.20;62.50
13569;DHT22;6856;51.460;7.158;2023-08-12T05:33:06;25.20;62.50
13569;DHT22;6856;51.460;7.158;2023-08-12T05:35:39;25.20;62.40
13569;DHT22;6856;51.460;7.158;2023-08-12T05:38:13;25.20;63.10
13569;DHT22;6856;51.460;7.158;2023-08-12T05:40:47;25.20;62.40
13569;DHT22;6856;51.460;7.158;2023-08-12T05:43:20;25.30;62.50
13569;DHT22;6856;51.460;7.158;2023-08-12T05:45:54;25.20;62.40
13569;DHT22;6856;51.460;7.158;2023-08-12T05:48:29;25.20;62.40
13569;DHT22;6856;51.460;7.158;2023-08-12T05:51:03;25.20;62.50
13569;DHT22;6856;51.460;7.158;2023-08-12T05:53:37;25.20;62.40
13569;DHT22;6856;51.460;7.158;2023-08-12T05:56:11;25.20;62.50
13569;DHT22;6856;51.460;7.158;2023-08-12T05:58:45;25.20;62.40
13569;DHT22;6856;51.460;7.158;2023-08-12T06:01:19;25.20;62.40
13569;DHT22;6856;51.460;7.158;2023-08-12T06:03:54;25.10;62.40
13569;DHT22;6856;51.460;7.158;2023-08-12T06:06:28;25.10;62.40
13569;DHT22;6856;51.460;7.158;2023-08-12T06:09:02;25.10;62.50
13569;DHT22;6856;51.460;7.158;2023-08-12T06:11:35;25.10;62.80
13569;DHT22;6856;51.460;7.158;2023-08-12T06:14:09;25.10;62.80
13569;DHT22;6856;51.460;7.158;2023-08-12T06:16:42;25.00;62.90
13569;DHT22;6856;51.460;7.158;2023-08-12T06:19:18;25.00;63.10
13569;DHT22;6856;51.460;7.158;2023-08-12T06:21:52;25.10;63.10
13569;DHT22;6856;51.460;7.158;2023-08-12T06:24:26;25.00;63.20
13569;DHT22;6856;51.460;7.158;2023-08-12T06:26:59;25.00;63.20
13569;DHT22;6856;51.460;7.158;2023-08-12T06:29:33;25.00;63.20
13569;DHT22;6856;51.460;7.158;2023-08-12T06:32:08;25.00;64.10
13569;DHT22;6856;51.460;7.158;2023-08-12T06:34:47;25.00;63.40
13569;DHT22;6856;51.460;7.158;2023-08-12T06:37:20;25.00;64.10
13569;DHT22;6856;51.460;7.158;2023-08-12T06:39:53;25.00;63.50
13569;DHT22;6856;51.460;7.158;2023-08-12T06:42:27;25.00;63.50
13569;DHT22;6856;51.460;7.158;2023-08-12T06:45:01;25.00;63.50
13569;DHT22;6856;51.460;7.158;2023-08-12T06:47:36;25.00;63.60
13569;DHT22;6856;51.460;7.158;2023-08-12T06:50:11;25.00;63.50
13569;DHT22;6856;51.460;7.158;2023-08-12T06:52:45;24.90;63.50
13569;DHT22;6856;51.460;7.158;2023-08-12T06:55:18;24.90;63.60
13569;DHT22;6856;51.460;7.158;2023-08-12T06:57:52;24.90;63.70
13569;DHT22;6856;51.460;7.158;2023-08-12T07:00:26;24.90;63.80
13569;DHT22;6856;51.460;7.158;2023-08-12T07:03:00;24.80;63.90
13569;DHT22;6856;51.460;7.158;2023-08-12T07:05:35;24.80;63.90
13569;DHT22;6856;51.460;7.158;2023-08-12T07:08:09;24.80;64.00
13569;DHT22;6856;51.460;7.158;2023-08-12T07:10:42;24.80;64.10
13569;DHT22;6856;51.460;7.158;2023-08-12T07:13:16;24.70;64.10
13569;DHT22;6856;51.460;7.158;2023-08-12T07:15:50;24.70;64.20
13569;DHT22;6856;51.460;7.158;2023-08-12T07:18:24;24.70;64.20
13569;DHT22;6856;51.460;7.158;2023-08-12T07:20:59;24.70;64.20
13569;DHT22;6856;51.460;7.158;2023-08-12T07:23:33;24.70;64.40
13569;DHT22;6856;51.460;7.158;2023-08-12T07:26:07;24.70;64.50
13569;DHT22;6856;51.460;7.158;2023-08-12T07:28:41;24.70;64.70
13569;DHT22;6856;51.460;7.158;2023-08-12T07:31:15;24.70;64.80
13569;DHT22;6856;51.460;7.158;2023-08-12T07:33:50;24.70;64.80
13569;DHT22;6856;51.460;7.158;2023-08-12T07:36:25;24.70;65.00
13569;DHT22;6856;51.460;7.158;2023-08-12T07:38:59;24.70;65.20
13569;DHT22;6856;51.460;7.158;2023-08-12T07:41:34;24.60;65.30
13569;DHT22;6856;51.460;7.158;2023-08-12T07:44:08;24.60;65.30
13569;DHT22;6856;51.460;7.158;2023-08-12T07:46:42;24.70;65.50
13569;DHT22;6856;51.460;7.158;2023-08-12T07:49:16;24.60;65.40
13569;DHT22;6856;51.460;7.158;2023-08-12T07:51:53;24.70;66.10
13569;DHT22;6856;51.460;7.158;2023-08-12T07:54:27;24.60;65.50
13569;DHT22;6856;51.460;7.158;2023-08-12T07:57:01;24.60;65.60
13569;DHT22;6856;51.460;7.158;2023-08-12T07:59:35;24.60;65.90
13569;DHT22;6856;51.460;7.158;2023-08-12T08:02:09;24.60;66.00
13569;DHT22;6856;51.460;7.158;2023-08-12T08:04:43;24.60;66.10
13569;DHT22;6856;51.460;7.158;2023-08-12T08:07:18;24.70;66.30
13569;DHT22;6856;51.460;7.158;2023-08-12T08:09:51;24.70;67.10
13569;DHT22;6856;51.460;7.158;2023-08-12T08:12:25;24.70;66.40
13569;DHT22;6856;51.460;7.158;2023-08-12T08:14:59;24.70;66.60
13569;DHT22;6856;51.460;7.158;2023-08-12T08:17:32;24.70;66.70
13569;DHT22;6856;51.460;7.158;2023-08-12T08:20:10;24.70;66.70
13569;DHT22;6856;51.460;7.158;2023-08-12T08:22:45;24.70;66.70
13569;DHT22;6856;51.460;7.158;2023-08-12T08:25:19;24.70;66.50
13569;DHT22;6856;51.460;7.158;2023-08-12T08:27:53;24.70;66.40
13569;DHT22;6856;51.460;7.158;2023-08-12T08:30:26;24.70;66.40
13569;DHT22;6856;51.460;7.158;2023-08-12T08:33:00;24.70;66.30
13569;DHT22;6856;51.460;7.158;2023-08-12T08:35:34;24.70;66.20
13569;DHT22;6856;51.460;7.158;2023-08-12T08:38:09;24.70;66.40
13569;DHT22;6856;51.460;7.158;2023-08-12T08:40:43;24.70;66.60
13569;DHT22;6856;51.460;7.158;2023-08-12T08:43:20;24.70;66.70
13569;DHT22;6856;51.460;7.158;2023-08-12T08:45:55;24.70;67.10
13569;DHT22;6856;51.460;7.158;2023-08-12T08:48:30;24.70;67.30
13569;DHT22;6856;51.460;7.158;2023-08-12T08:51:08;24.70;67.40
13569;DHT22;6856;51.460;7.158;2023-08-12T08:53:45;24.70;67.60
13569;DHT22;6856;51.460;7.158;2023-08-12T08:56:23;24.70;67.60
13569;DHT22;6856;51.460;7.158;2023-08-12T08:59:01;24.70;67.60
13569;DHT22;6856;51.460;7.158;2023-08-12T09:01:35;24.70;67.50
13569;DHT22;6856;51.460;7.158;2023-08-12T09:04:10;24.70;67.30
13569;DHT22;6856;51.460;7.158;2023-08-12T09:06:45;24.70;67.30
13569;DHT22;6856;51.460;7.158;2023-08-12T09:09:21;24.80;67.40
13569;DHT22;6856;51.460;7.158;2023-08-12T09:11:57;24.80;67.70
13569;DHT22;6856;51.460;7.158;2023-08-12T09:14:31;24.80;67.80
13569;DHT22;6856;51.460;7.158;2023-08-12T09:17:05;24.80;68.00
13569;DHT22;6856;51.460;7.158;2023-08-12T09:19:40;24.80;68.70
13569;DHT22;6856;51.460;7.158;2023-08-12T09:22:14;24.80;68.00
13569;DHT22;6856;51.460;7.158;2023-08-12T09:24:56;24.80;67.80
13569;DHT22;6856;51.460;7.158;2023-08-12T09:27:31;24.80;67.80
13569;DHT22;6856;51.460;7.158;2023-08-12T09:30:05;24.80;67.60
13569;DHT22;6856;51.460;7.158;2023-08-12T09:32:40;24.80;67.70
13569;DHT22;6856;51.460;7.158;2023-08-12T09:35:16;24.90;67.70
13569;DHT22;6856;51.460;7.158;2023-08-12T09:37:50;24.90;67.70
13569;DHT22;6856;51.460;7.158;2023-08-12T09:40:25;24.90;67.80
13569;DHT22;6856;51.460;7.158;2023-08-12T09:43:00;24.90;67.90
13569;DHT22;6856;51.460;7.158;2023-08-12T09:45:35;24.90;67.70
13569;DHT22;6856;51.460;7.158;2023-08-12T09:48:09;24.90;67.40
13569;DHT22;6856;51.460;7.158;2023-08-12T09:50:46;24.90;67.40
13569;DHT22;6856;51.460;7.158;2023-08-12T09:53:22;24.90;67.50
13569;DHT22;6856;51.460;7.158;2023-08-12T09:56:04;24.90;67.90
13569;DHT22;6856;51.460;7.158;2023-08-12T09:58:41;24.90;68.20
13569;DHT22;6856;51.460;7.158;2023-08-12T10:01:19;24.90;67.90
13569;DHT22;6856;51.460;7.158;2023-08-12T10:03:53;24.90;67.90
13569;DHT22;6856;51.460;7.158;2023-08-12T10:06:28;24.90;68.00
13569;DHT22;6856;51.460;7.158;2023-08-12T10:09:02;25.00;68.00
13569;DHT22;6856;51.460;7.158;2023-08-12T10:11:39;24.90;67.90
13569;DHT22;6856;51.460;7.158;2023-08-12T10:14:15;25.00;67.80
13569;DHT22;6856;51.460;7.158;2023-08-12T10:16:49;25.00;67.70
13569;DHT22;6856;51.460;7.158;2023-08-12T10:19:22;25.00;67.70
13569;DHT22;6856;51.460;7.158;2023-08-12T10:21:59;25.10;68.10
13569;DHT22;6856;51.460;7.158;2023-08-12T10:24:36;25.10;68.50
13569;DHT22;6856;51.460;7.158;2023-08-12T10:27:14;25.20;68.80
13569;DHT22;6856;51.460;7.158;2023-08-12T10:29:48;25.30;68.90
13569;DHT22;6856;51.460;7.158;2023-08-12T10:32:22;25.40;68.60
13569;DHT22;6856;51.460;7.158;2023-08-12T10:34:56;25.40;68.10
13569;DHT22;6856;51.460;7.158;2023-08-12T10:37:32;25.50;68.10
13569;DHT22;6856;51.460;7.158;2023-08-12T10:40:20;25.50;67.70
13569;DHT22;6856;51.460;7.158;2023-08-12T10:42:56;25.60;68.50
13569;DHT22;6856;51.460;7.158;2023-08-12T10:45:42;25.70;67.90
13569;DHT22;6856;51.460;7.158;2023-08-12T10:48:18;25.80;68.30
13569;DHT22;6856;51.460;7.158;2023-08-12T10:50:58;25.80;67.50
13569;DHT22;6856;51.460;7.158;2023-08-12T10:53:33;25.80;67.30
13569;DHT22;6856;51.460;7.158;2023-08-12T10:56:11;25.90;67.00
13569;DHT22;6856;51.460;7.158;2023-08-12T10:58:47;25.90;66.50
13569;DHT22;6856;51.460;7.158;2023-08-12T11:01:21;25.90;66.70
13569;DHT22;6856;51.460;7.158;2023-08-12T11:03:58;25.90;66.70
13569;DHT22;6856;51.460;7.158;2023-08-12T11:06:43;25.90;66.70
13569;DHT22;6856;51.460;7.158;2023-08-12T11:09:21;25.90;67.10
13569;DHT22;6856;51.460;7.158;2023-08-12T11:11:57;25.80;66.80
13569;DHT22;6856;51.460;7.158;2023-08-12T11:14:47;25.80;67.10
13569;DHT22;6856;51.460;7.158;2023-08-12T11:17:29;25.80;67.70
13569;DHT22;6856;51.460;7.158;2023-08-12T11:20:07;25.80;67.60
13569;DHT22;6856;51.460;7.158;2023-08-12T11:22:43;25.70;67.50
13569;DHT22;6856;51.460;7.158;2023-08-12T11:25:17;25.80;67.80
13569;DHT22;6856;51.460;7.158;2023-08-12T11:27:51;25.70;67.90
13569;DHT22;6856;51.460;7.158;2023-08-12T11:30:27;25.70;68.00
13569;DHT22;6856;51.460;7.158;2023-08-12T11:33:04;25.70;68.20
13569;DHT22;6856;51.460;7.158;2023-08-12T11:35:43;25.70;68.30
13569;DHT22;6856;51.460;7.158;2023-08-12T11:38:20;25.70;68.50
13569;DHT22;6856;51.460;7.158;2023-08-12T11:40:55;25.70;68.40
13569;DHT22;6856;51.460;7.158;2023-08-12T11:43:28;25.70;68.50
13569;DHT22;6856;51.460;7.158;2023-08-12T11:46:05;25.70;68.80
13569;DHT22;6856;51.460;7.158;2023-08-12T11:48:39;25.80;68.90
13569;DHT22;6856;51.460;7.158;2023-08-12T11:51:13;25.80;68.70
13569;DHT22;6856;51.460;7.158;2023-08-12T11:53:48;25.80;68.80
13569;DHT22;6856;51.460;7.158;2023-08-12T11:56:22;25.80;68.70
13569;DHT22;6856;51.460;7.158;2023-08-12T11:58:55;25.80;68.50
13569;DHT22;6856;51.460;7.158;2023-08-12T12:01:31;25.90;68.20
13569;DHT22;6856;51.460;7.158;2023-08-12T12:04:05;25.80;68.20
13569;DHT22;6856;51.460;7.158;2023-08-12T12:06:39;25.90;68.30
13569;DHT22;6856;51.460;7.158;2023-08-12T12:09:13;25.90;68.30
13569;DHT22;6856;51.460;7.158;2023-08-12T12:11:52;25.90;68.30
13569;DHT22;6856;51.460;7.158;2023-08-12T12:14:26;25.90;68.30
13569;DHT22;6856;51.460;7.158;2023-08-12T12:17:07;25.90;68.70
13569;DHT22;6856;51.460;7.158;2023-08-12T12:19:42;25.90;69.80
13569;DHT22;6856;51.460;7.158;2023-08-12T12:22:16;26.00;70.20
13569;DHT22;6856;51.460;7.158;2023-08-12T12:24:50;26.10;70.40
13569;DHT22;6856;51.460;7.158;2023-08-12T12:27:24;26.20;70.20
13569;DHT22;6856;51.460;7.158;2023-08-12T12:29:58;26.30;69.70
13569;DHT22;6856;51.460;7.158;2023-08-12T12:32:33;26.40;69.00
13569;DHT22;6856;51.460;7.158;2023-08-12T12:35:08;26.40;68.60
13569;DHT22;6856;51.460;7.158;2023-08-12T12:37:42;26.50;68.90
13569;DHT22;6856;51.460;7.158;2023-08-12T12:40:16;26.50;68.60
13569;DHT22;6856;51.460;7.158;2023-08-12T12:42:51;26.60;68.20
13569;DHT22;6856;51.460;7.158;2023-08-12T12:45:24;26.60;67.80
13569;DHT22;6856;51.460;7.158;2023-08-12T12:48:00;26.70;67.30
13569;DHT22;6856;51.460;7.158;2023-08-12T12:50:35;26.60;66.50
13569;DHT22;6856;51.460;7.158;2023-08-12T12:53:10;26.60;66.30
13569;DHT22;6856;51.460;7.158;2023-08-12T12:55:44;26.60;66.30
13569;DHT22;6856;51.460;7.158;2023-08-12T12:58:17;26.50;66.00
13569;DHT22;6856;51.460;7.158;2023-08-12T13:00:51;26.40;65.90
13569;DHT22;6856;51.460;7.158;2023-08-12T13:03:26;26.30;65.60
13569;DHT22;6856;51.460;7.158;2023-08-12T13:06:00;26.30;65.70
13569;DHT22;6856;51.460;7.158;2023-08-12T13:08:35;26.20;65.70
13569;DHT22;6856;51.460;7.158;2023-08-12T13:11:08;26.20;66.60
13569;DHT22;6856;51.460;7.158;2023-08-12T13:13:42;26.10;66.10
13569;DHT22;6856;51.460;7.158;2023-08-12T13:16:16;26.10;66.20
13569;DHT22;6856;51.460;7.158;2023-08-12T13:18:51;26.00;66.20
13569;DHT22;6856;51.460;7.158;2023-08-12T13:21:25;26.00;66.40
13569;DHT22;6856;51.460;7.158;2023-08-12T13:23:59;26.00;66.60
13569;DHT22;6856;51.460;7.158;2023-08-12T13:26:35;25.90;66.60
13569;DHT22;6856;51.460;7.158;2023-08-12T13:29:09;25.90;66.60
13569;DHT22;6856;51.460;7.158;2023-08-12T13:31:43;25.90;66.90
13569;DHT22;6856;51.460;7.158;2023-08-12T13:34:19;25.90;66.80
13569;DHT22;6856;51.460;7.158;2023-08-12T13:36:53;25.90;67.80
13569;DHT22;6856;51.460;7.158;2023-08-12T13:39:27;25.90;67.30
13569;DHT22;6856;51.460;7.158;2023-08-12T13:42:01;25.90;67.90
13569;DHT22;6856;51.460;7.158;2023-08-12T13:44:35;25.90;67.90
13569;DHT22;6856;51.460;7.158;2023-08-12T13:47:09;25.90;68.10
13569;DHT22;6856;51.460;7.158;2023-08-12T13:49:44;25.90;68.10
13569;DHT22;6856;51.460;7.158;2023-08-12T13:52:18;25.90;68.80
13569;DHT22;6856;51.460;7.158;2023-08-12T13:54:51;25.90;68.00
13569;DHT22;6856;51.460;7.158;2023-08-12T13:57:25;25.90;67.90
13569;DHT22;6856;51.460;7.158;2023-08-12T13:59:59;25.90;67.60
13569;DHT22;6856;51.460;7.158;2023-08-12T14:02:33;25.90;67.50
13569;DHT22;6856;51.460;7.158;2023-08-12T14:05:09;25.90;67.30
13569;DHT22;6856;51.460;7.158;2023-08-12T14:07:44;25.80;67.30
13569;DHT22;6856;51.460;7.158;2023-08-12T14:10:18;25.80;67.10
13569;DHT22;6856;51.460;7.158;2023-08-12T14:12:52;25.80;66.80
13569;DHT22;6856;51.460;7.158;2023-08-12T14:15:27;25.70;67.50
13569;DHT22;6856;51.460;7.158;2023-08-12T14:18:01;25.70;67.30
13569;DHT22;6856;51.460;7.158;2023-08-12T14:20:37;25.70;67.50
13569;DHT22;6856;51.460;7.158;2023-08-12T14:23:10;25.60;67.60
13569;DHT22;6856;51.460;7.158;2023-08-12T14:25:45;25.60;67.60
13569;DHT22;6856;51.460;7.158;2023-08-12T14:28:18;25.60;67.50
13569;DHT22;6856;51.460;7.158;2023-08-12T14:30:54;25.60;67.90
13569;DHT22;6856;51.460;7.158;2023-08-12T14:33:28;25.60;68.40
13569;DHT22;6856;51.460;7.158;2023-08-12T14:36:05;25.60;68.60
13569;DHT22;6856;51.460;7.158;2023-08-12T14:38:39;25.60;68.80
13569;DHT22;6856;51.460;7.158;2023-08-12T14:41:13;25.60;68.60
13569;DHT22;6856;51.460;7.158;2023-08-12T14:43:47;25.60;69.40
13569;DHT22;6856;51.460;7.158;2023-08-12T14:46:20;25.70;69.10
13569;DHT22;6856;51.460;7.158;2023-08-12T14:48:54;25.70;68.90
13569;DHT22;6856;51.460;7.158;2023-08-12T14:51:30;25.70;68.80
13569;DHT22;6856;51.460;7.158;2023-08-12T14:54:05;25.80;69.20
13569;DHT22;6856;51.460;7.158;2023-08-12T14:56:39;25.80;69.00
13569;DHT22;6856;51.460;7.158;2023-08-12T14:59:13;25.80;68.50
13569;DHT22;6856;51.460;7.158;2023-08-12T15:01:47;25.80;68.40
13569;DHT22;6856;51.460;7.158;2023-08-12T15:04:21;25.80;68.60
13569;DHT22;6856;51.460;7.158;2023-08-12T15:06:56;25.90;68.70
13569;DHT22;6856;51.460;7.158;2023-08-12T15:09:30;25.90;68.10
13569;DHT22;6856;51.460;7.158;2023-08-12T15:12:04;25.90;68.20
13569;DHT22;6856;51.460;7.158;2023-08-12T15:14:38;25.90;68.10
13569;DHT22;6856;51.460;7.158;2023-08-12T15:17:12;26.00;67.70
13569;DHT22;6856;51.460;7.158;2023-08-12T15:19:46;25.90;67.30
13569;DHT22;6856;51.460;7.158;2023-08-12T15:22:22;26.00;67.20
13569;DHT22;6856;51.460;7.158;2023-08-12T15:24:55;25.90;67.00
13569;DHT22;6856;51.460;7.158;2023-08-12T15:27:31;25.90;66.80
13569;DHT22;6856;51.460;7.158;2023-08-12T15:30:06;25.90;66.80
13569;DHT22;6856;51.460;7.158;2023-08-12T15:32:42;25.90;67.10
13569;DHT22;6856;51.460;7.158;2023-08-12T15:35:17;25.90;67.30
13569;DHT22;6856;51.460;7.158;2023-08-12T15:37:52;25.90;67.40
13569;DHT22;6856;51.460;7.158;2023-08-12T15:40:26;25.90;67.40
13569;DHT22;6856;51.460;7.158;2023-08-12T15:43:00;25.90;66.90
13569;DHT22;6856;51.460;7.158;2023-08-12T15:45:36;26.00;66.90
13569;DHT22;6856;51.460;7.158;2023-08-12T15:48:11;26.00;66.40
13569;DHT22;6856;51.460;7.158;2023-08-12T15:50:45;26.00;65.60
13569;DHT22;6856;51.460;7.158;2023-08-12T15:53:20;26.00;65.60
13569;DHT22;6856;51.460;7.158;2023-08-12T15:55:53;26.00;65.80
13569;DHT22;6856;51.460;7.158;2023-08-12T15:58:27;25.90;65.80
13569;DHT22;6856;51.460;7.158;2023-08-12T16:01:01;25.90;65.40
13569;DHT22;6856;51.460;7.158;2023-08-12T16:03:35;25.90;65.20
13569;DHT22;6856;51.460;7.158;2023-08-12T16:06:10;25.90;65.50
13569;DHT22;6856;51.460;7.158;2023-08-12T16:08:45;26.00;65.50
13569;DHT22;6856;51.460;7.158;2023-08-12T16:11:31;26.00;64.40
13569;DHT22;6856;51.460;7.158;2023-08-12T16:14:04;26.00;63.50
13569;DHT22;6856;51.460;7.158;2023-08-12T16:16:38;26.00;63.00
13569;DHT22;6856;51.460;7.158;2023-08-12T16:19:12;26.00;62.40
13569;DHT22;6856;51.460;7.158;2023-08-12T16:21:45;26.00;61.30
13569;DHT22;6856;51.460;7.158;2023-08-12T16:24:21;26.00;60.80
13569;DHT22;6856;51.460;7.158;2023-08-12T16:26:55;26.00;60.80
13569;DHT22;6856;51.460;7.158;2023-08-12T16:29:28;26.00;61.00
13569;DHT22;6856;51.460;7.158;2023-08-12T16:32:02;25.90;60.60
13569;DHT22;6856;51.460;7.158;2023-08-12T16:34:35;25.90;60.40